Private Wetterstation Sandau
Wetterdaten: Samstag, 02.02.2013
Datum Zeit Temp. A. Feuchte A. Luftdruck Regen Wind Richtung Richtung Taupunkt Windchill
02.02.2013 00:01 3,3 C 91 % 991,0 hPa 0,5 l/m 0,0 km/h (0 Bft) N-NW 337 2,0 C 3,3 C
02.02.2013 00:06 3,3 C 91 % 991,0 hPa 0,0 l/m 1,8 km/h (1 Bft) N-NW 337 2,0 C 3,3 C
02.02.2013 00:11 3,3 C 91 % 991,0 hPa 0,0 l/m 1,4 km/h (1 Bft) N-NW 337 2,0 C 3,3 C
02.02.2013 00:16 3,2 C 91 % 991,0 hPa 0,0 l/m 0,0 km/h (0 Bft) N-NW 337 1,9 C 3,2 C
02.02.2013 00:21 3,2 C 91 % 990,7 hPa 0,0 l/m 2,2 km/h (1 Bft) N-NW 337 1,9 C 3,2 C
02.02.2013 00:26 3,2 C 91 % 990,8 hPa 0,0 l/m 1,8 km/h (1 Bft) N-NW 337 1,9 C 3,2 C
02.02.2013 00:31 3,2 C 91 % 990,8 hPa 0,0 l/m 0,0 km/h (0 Bft) N-NW 337 1,9 C 3,2 C
02.02.2013 00:36 3,2 C 91 % 990,7 hPa 0,0 l/m 1,4 km/h (1 Bft) N-NW 337 1,9 C 3,2 C
02.02.2013 00:41 3,2 C 91 % 990,9 hPa 0,5 l/m 4,7 km/h (1 Bft) N-NW 337 1,9 C 2,2 C
02.02.2013 00:46 3,1 C 91 % 990,7 hPa 0,0 l/m 0,0 km/h (0 Bft) N-NW 337 1,8 C 3,1 C
02.02.2013 00:51 3,1 C 91 % 990,7 hPa 0,0 l/m 4,3 km/h (1 Bft) N-NW 337 1,8 C 3,1 C
02.02.2013 00:56 3,0 C 91 % 990,7 hPa 0,0 l/m 2,9 km/h (1 Bft) N-NW 337 1,7 C 3,0 C
02.02.2013 01:01 3,0 C 91 % 990,7 hPa 0,0 l/m 2,9 km/h (1 Bft) N-NW 337 1,7 C 3,0 C
02.02.2013 01:06 2,9 C 91 % 990,6 hPa 0,0 l/m 4,0 km/h (1 Bft) N-NW 337 1,6 C 2,9 C
02.02.2013 01:11 2,9 C 91 % 990,7 hPa 0,5 l/m 0,0 km/h (0 Bft) N-NW 337 1,6 C 2,9 C
02.02.2013 01:16 2,9 C 91 % 990,7 hPa 0,0 l/m 2,2 km/h (1 Bft) N-NW 337 1,6 C 2,9 C
02.02.2013 01:21 2,9 C 91 % 990,5 hPa 0,0 l/m 0,0 km/h (0 Bft) N-NW 337 1,6 C 2,9 C
02.02.2013 01:26 2,9 C 91 % 990,6 hPa 0,0 l/m 0,0 km/h (0 Bft) N-NW 337 1,6 C 2,9 C
02.02.2013 01:31 2,9 C 91 % 990,7 hPa 0,0 l/m 1,4 km/h (1 Bft) N-NW 337 1,6 C 2,9 C
02.02.2013 01:36 2,9 C 91 % 990,6 hPa 0,0 l/m 3,6 km/h (1 Bft) N-NW 337 1,6 C 2,9 C
02.02.2013 01:41 2,8 C 91 % 990,5 hPa 0,5 l/m 5,0 km/h (1 Bft) N-NW 337 1,5 C 1,6 C
02.02.2013 01:46 2,7 C 91 % 990,6 hPa 0,0 l/m 0,0 km/h (0 Bft) N-NW 337 1,4 C 2,7 C
02.02.2013 01:51 2,6 C 91 % 990,5 hPa 0,0 l/m 1,4 km/h (1 Bft) N-NW 337 1,3 C 2,6 C
02.02.2013 01:56 2,6 C 91 % 990,4 hPa 0,0 l/m 7,9 km/h (2 Bft) N-NW 337 1,3 C 0,3 C
02.02.2013 02:01 2,6 C 91 % 990,4 hPa 0,0 l/m 2,5 km/h (1 Bft) N-NW 337 1,3 C 2,6 C
02.02.2013 02:06 2,6 C 91 % 990,4 hPa 0,0 l/m 2,5 km/h (1 Bft) N-NW 337 1,3 C 2,6 C
02.02.2013 02:11 2,4 C 91 % 990,5 hPa 0,5 l/m 6,1 km/h (2 Bft) N-NW 337 1,1 C 0,7 C
02.02.2013 02:16 2,3 C 91 % 990,6 hPa 0,0 l/m 3,2 km/h (1 Bft) N-NW 337 1,0 C 2,3 C
02.02.2013 02:21 2,2 C 91 % 990,6 hPa 0,0 l/m 4,7 km/h (1 Bft) N-NW 337 0,9 C 1,0 C
02.02.2013 02:26 2,1 C 91 % 990,8 hPa 0,0 l/m 0,0 km/h (0 Bft) N-NW 337 0,8 C 2,1 C
02.02.2013 02:31 1,9 C 91 % 990,6 hPa 0,0 l/m 4,0 km/h (1 Bft) N-NW 337 0,6 C 1,9 C
02.02.2013 02:36 1,9 C 91 % 990,6 hPa 0,5 l/m 4,0 km/h (1 Bft) N-NW 337 0,6 C 1,9 C
02.02.2013 02:41 1,8 C 91 % 990,7 hPa 0,0 l/m 3,6 km/h (1 Bft) N-NW 337 0,5 C 1,8 C
02.02.2013 02:46 1,8 C 91 % 990,7 hPa 0,0 l/m 6,1 km/h (2 Bft) N-NW 337 0,5 C 0,0 C
02.02.2013 02:51 1,6 C 92 % 990,7 hPa 0,0 l/m 4,7 km/h (1 Bft) N-NW 337 0,4 C 0,4 C
02.02.2013 02:56 1,6 C 92 % 990,7 hPa 0,0 l/m 7,6 km/h (2 Bft) N-NW 337 0,4 C -0,7 C
02.02.2013 03:01 1,6 C 92 % 990,8 hPa 0,0 l/m 6,1 km/h (2 Bft) N-NW 337 0,4 C -0,2 C
02.02.2013 03:06 1,4 C 92 % 991,0 hPa 0,0 l/m 4,7 km/h (1 Bft) N-NW 337 0,2 C 0,1 C
02.02.2013 03:11 1,3 C 91 % 991,0 hPa 0,5 l/m 7,6 km/h (2 Bft) N-NW 337 -0,0 C -1,1 C
02.02.2013 03:16 1,3 C 92 % 991,0 hPa 0,0 l/m 4,7 km/h (1 Bft) N-NW 337 0,1 C 0,0 C
02.02.2013 03:21 1,1 C 92 % 990,9 hPa 0,0 l/m 5,4 km/h (1 Bft) N-NW 337 -0,1 C -0,5 C
02.02.2013 03:26 1,1 C 92 % 990,9 hPa 0,0 l/m 5,8 km/h (2 Bft) N-NW 337 -0,1 C -0,7 C
02.02.2013 03:31 1,0 C 92 % 990,8 hPa 0,0 l/m 13,3 km/h (3 Bft) N-NW 337 -0,2 C -2,9 C
02.02.2013 03:36 1,0 C 92 % 990,8 hPa 0,5 l/m 7,2 km/h (2 Bft) N-NW 337 -0,2 C -1,3 C
02.02.2013 03:41 1,0 C 92 % 990,9 hPa 0,0 l/m 7,2 km/h (2 Bft) N-NW 337 -0,2 C -1,3 C
02.02.2013 03:46 1,0 C 93 % 991,0 hPa 0,0 l/m 7,6 km/h (2 Bft) N-NW 337 -0,0 C -1,4 C
02.02.2013 03:51 1,1 C 93 % 991,1 hPa 0,0 l/m 7,9 km/h (2 Bft) N-NW 337 0,1 C -1,4 C
02.02.2013 03:56 1,1 C 93 % 991,0 hPa 0,0 l/m 11,2 km/h (2 Bft) N-NW 337 0,1 C -2,3 C
02.02.2013 04:01 1,1 C 93 % 991,1 hPa 0,5 l/m 9,0 km/h (2 Bft) N-NW 337 0,1 C -1,7 C
02.02.2013 04:06 1,1 C 93 % 991,2 hPa 0,0 l/m 5,0 km/h (1 Bft) N-NW 337 0,1 C -0,3 C
02.02.2013 04:11 1,1 C 93 % 991,3 hPa 0,0 l/m 4,0 km/h (1 Bft) N-NW 337 0,1 C 1,1 C
02.02.2013 04:16 1,2 C 93 % 991,3 hPa 0,0 l/m 7,6 km/h (2 Bft) N-NW 337 0,2 C -1,2 C
02.02.2013 04:21 1,3 C 93 % 991,3 hPa 0,0 l/m 11,2 km/h (2 Bft) N-NW 337 0,3 C -2,0 C
02.02.2013 04:26 1,3 C 93 % 991,5 hPa 0,5 l/m 4,0 km/h (1 Bft) N-NW 337 0,3 C 1,3 C
02.02.2013 04:31 1,3 C 93 % 991,5 hPa 0,0 l/m 9,7 km/h (2 Bft) N-NW 337 0,3 C -1,7 C
02.02.2013 04:36 1,3 C 93 % 991,2 hPa 0,0 l/m 10,1 km/h (2 Bft) N-NW 337 0,3 C -1,8 C
02.02.2013 04:41 1,4 C 93 % 991,3 hPa 0,0 l/m 17,6 km/h (3 Bft) N-NW 337 0,4 C -3,1 C
02.02.2013 04:46 1,4 C 93 % 991,4 hPa 0,5 l/m 4,7 km/h (1 Bft) N-NW 337 0,4 C 0,1 C
02.02.2013 04:51 1,4 C 93 % 991,6 hPa 0,0 l/m 10,8 km/h (2 Bft) N-NW 337 0,4 C -1,8 C
02.02.2013 04:56 1,4 C 93 % 991,7 hPa 0,0 l/m 13,7 km/h (3 Bft) N-NW 337 0,4 C -2,4 C
02.02.2013 05:01 1,3 C 93 % 991,8 hPa 0,0 l/m 11,2 km/h (2 Bft) N-NW 337 0,3 C -2,0 C
02.02.2013 05:06 1,3 C 93 % 991,7 hPa 0,0 l/m 7,2 km/h (2 Bft) N-NW 337 0,3 C -1,0 C
02.02.2013 05:11 1,3 C 93 % 991,8 hPa 0,5 l/m 12,6 km/h (3 Bft) N-NW 337 0,3 C -2,4 C
02.02.2013 05:16 1,3 C 93 % 991,8 hPa 0,0 l/m 6,5 km/h (2 Bft) N-NW 337 0,3 C -0,7 C
02.02.2013 05:21 1,3 C 93 % 991,8 hPa 0,0 l/m 10,1 km/h (2 Bft) N-NW 337 0,3 C -1,8 C
02.02.2013 05:26 1,3 C 93 % 991,9 hPa 0,0 l/m 8,6 km/h (2 Bft) N-NW 337 0,3 C -1,4 C
02.02.2013 05:31 1,4 C 93 % 992,0 hPa 0,0 l/m 5,0 km/h (1 Bft) N-NW 337 0,4 C -0,0 C
02.02.2013 05:36 1,5 C 93 % 992,1 hPa 0,0 l/m 8,3 km/h (2 Bft) N-NW 337 0,5 C -1,1 C
02.02.2013 05:41 1,6 C 93 % 992,3 hPa 0,5 l/m 5,4 km/h (1 Bft) N-NW 337 0,6 C 0,1 C
02.02.2013 05:46 1,7 C 94 % 992,4 hPa 0,0 l/m 9,0 km/h (2 Bft) N-NW 337 0,8 C -1,0 C
02.02.2013 05:51 1,8 C 94 % 992,3 hPa 0,0 l/m 9,0 km/h (2 Bft) N-NW 337 0,9 C -0,9 C
02.02.2013 05:56 1,9 C 94 % 992,2 hPa 0,0 l/m 6,1 km/h (2 Bft) N-NW 337 1,0 C 0,1 C
02.02.2013 06:01 1,9 C 94 % 992,3 hPa 0,0 l/m 6,5 km/h (2 Bft) N-NW 337 1,0 C -0,0 C
02.02.2013 06:06 2,0 C 94 % 992,4 hPa 0,0 l/m 5,4 km/h (1 Bft) N-NW 337 1,1 C 0,5 C
02.02.2013 06:11 2,1 C 94 % 992,5 hPa 0,0 l/m 4,7 km/h (1 Bft) NW 315 1,2 C 0,9 C
02.02.2013 06:16 2,1 C 94 % 992,6 hPa 0,0 l/m 9,7 km/h (2 Bft) N-NW 337 1,2 C -0,7 C
02.02.2013 06:21 2,1 C 94 % 992,6 hPa 0,0 l/m 9,0 km/h (2 Bft) N-NW 337 1,2 C -0,6 C
02.02.2013 06:26 2,2 C 94 % 992,7 hPa 0,0 l/m 5,8 km/h (2 Bft) N-NW 337 1,3 C 0,6 C
02.02.2013 06:31 2,2 C 94 % 992,8 hPa 0,5 l/m 6,8 km/h (2 Bft) N-NW 337 1,3 C 0,2 C
02.02.2013 06:36 2,2 C 94 % 992,9 hPa 0,0 l/m 8,6 km/h (2 Bft) N-NW 337 1,3 C -0,3 C
02.02.2013 06:41 2,3 C 94 % 992,9 hPa 0,0 l/m 5,8 km/h (2 Bft) N-NW 337 1,4 C 0,7 C
02.02.2013 06:46 2,2 C 94 % 992,9 hPa 0,0 l/m 6,8 km/h (2 Bft) N-NW 337 1,3 C 0,2 C
02.02.2013 06:51 2,3 C 94 % 993,0 hPa 0,0 l/m 8,3 km/h (2 Bft) NW 315 1,4 C -0,1 C
02.02.2013 06:56 2,3 C 94 % 993,1 hPa 0,0 l/m 7,9 km/h (2 Bft) N-NW 337 1,4 C -0,0 C
02.02.2013 07:01 2,3 C 94 % 993,2 hPa 0,0 l/m 12,6 km/h (3 Bft) N-NW 337 1,4 C -1,1 C
02.02.2013 07:06 2,3 C 93 % 993,4 hPa 0,0 l/m 4,0 km/h (1 Bft) NW 315 1,3 C 2,3 C
02.02.2013 07:11 2,3 C 93 % 993,4 hPa 0,0 l/m 5,8 km/h (2 Bft) N-NW 337 1,3 C 0,7 C
02.02.2013 07:16 2,4 C 93 % 993,5 hPa 0,0 l/m 8,3 km/h (2 Bft) NW 315 1,4 C -0,0 C
02.02.2013 07:21 2,4 C 93 % 993,6 hPa 0,0 l/m 5,8 km/h (2 Bft) N-NW 337 1,4 C 0,8 C
02.02.2013 07:26 2,4 C 93 % 993,7 hPa 0,0 l/m 4,7 km/h (1 Bft) N-NW 337 1,4 C 1,3 C
02.02.2013 07:31 2,4 C 93 % 993,7 hPa 0,0 l/m 9,4 km/h (2 Bft) N-NW 337 1,4 C -0,3 C
02.02.2013 07:36 2,4 C 93 % 993,7 hPa 0,0 l/m 5,4 km/h (1 Bft) N-NW 337 1,4 C 1,0 C
02.02.2013 07:41 2,4 C 93 % 993,9 hPa 0,0 l/m 7,2 km/h (2 Bft) N-NW 337 1,4 C 0,3 C
02.02.2013 07:46 2,4 C 93 % 993,9 hPa 0,0 l/m 6,1 km/h (2 Bft) N-NW 337 1,4 C 0,7 C
02.02.2013 07:51 2,4 C 93 % 994,1 hPa 0,0 l/m 14,4 km/h (3 Bft) NW 315 1,4 C -1,4 C
02.02.2013 07:56 2,5 C 93 % 994,2 hPa 0,0 l/m 10,8 km/h (2 Bft) N-NW 337 1,5 C -0,5 C
02.02.2013 08:01 2,6 C 93 % 994,3 hPa 0,0 l/m 10,8 km/h (2 Bft) N-NW 337 1,6 C -0,4 C
02.02.2013 08:06 2,6 C 93 % 994,3 hPa 0,0 l/m 8,6 km/h (2 Bft) N-NW 337 1,6 C 0,1 C
02.02.2013 08:11 2,6 C 93 % 994,5 hPa 0,0 l/m 6,5 km/h (2 Bft) N-NW 337 1,6 C 0,8 C
02.02.2013 08:16 2,6 C 93 % 994,5 hPa 0,0 l/m 4,3 km/h (1 Bft) N-NW 337 1,6 C 2,6 C
02.02.2013 08:21 2,6 C 93 % 994,6 hPa 0,0 l/m 10,4 km/h (2 Bft) NW 315 1,6 C -0,3 C
02.02.2013 08:26 2,7 C 93 % 994,7 hPa 0,0 l/m 3,2 km/h (1 Bft) N-NW 337 1,7 C 2,7 C
02.02.2013 08:31 2,7 C 93 % 994,8 hPa 0,0 l/m 6,8 km/h (2 Bft) N-NW 337 1,7 C 0,8 C
02.02.2013 08:36 2,8 C 93 % 995,0 hPa 0,0 l/m 2,5 km/h (1 Bft) N-NW 337 1,8 C 2,8 C
02.02.2013 08:41 2,8 C 93 % 995,0 hPa 0,0 l/m 7,6 km/h (2 Bft) N-NW 337 1,8 C 0,7 C
02.02.2013 08:46 2,8 C 94 % 995,2 hPa 0,0 l/m 6,5 km/h (2 Bft) N-NW 337 1,9 C 1,0 C
02.02.2013 08:51 2,9 C 94 % 995,3 hPa 0,0 l/m 18,7 km/h (3 Bft) N-NW 337 2,0 C -1,4 C
02.02.2013 08:56 2,9 C 93 % 995,3 hPa 0,0 l/m 4,7 km/h (1 Bft) N-NW 337 1,9 C 1,8 C
02.02.2013 09:01 2,9 C 93 % 995,5 hPa 0,0 l/m 13,3 km/h (3 Bft) NW 315 1,9 C -0,5 C
02.02.2013 09:06 2,9 C 93 % 995,4 hPa 0,0 l/m 5,0 km/h (1 Bft) N-NW 337 1,9 C 1,7 C
02.02.2013 09:11 2,9 C 93 % 995,4 hPa 0,0 l/m 5,8 km/h (2 Bft) N-NW 337 1,9 C 1,4 C
02.02.2013 09:16 3,0 C 93 % 995,7 hPa 0,0 l/m 5,8 km/h (2 Bft) N-NW 337 2,0 C 1,5 C
02.02.2013 09:21 3,0 C 93 % 995,7 hPa 0,0 l/m 5,4 km/h (1 Bft) N-NW 337 2,0 C 1,7 C
02.02.2013 09:26 3,0 C 93 % 996,0 hPa 0,0 l/m 5,0 km/h (1 Bft) N-NW 337 2,0 C 1,8 C
02.02.2013 09:31 3,1 C 93 % 995,8 hPa 0,0 l/m 6,5 km/h (2 Bft) NW 315 2,1 C 1,4 C
02.02.2013 09:36 3,1 C 93 % 996,2 hPa 0,0 l/m 5,4 km/h (1 Bft) N-NW 337 2,1 C 1,8 C
02.02.2013 09:41 3,1 C 93 % 996,1 hPa 0,0 l/m 5,8 km/h (2 Bft) N-NW 337 2,1 C 1,6 C
02.02.2013 09:46 3,2 C 93 % 996,2 hPa 0,0 l/m 13,7 km/h (3 Bft) N-NW 337 2,2 C -0,2 C
02.02.2013 09:51 3,3 C 93 % 996,4 hPa 0,0 l/m 4,7 km/h (1 Bft) N-NW 337 2,3 C 2,3 C
02.02.2013 09:56 3,3 C 93 % 996,4 hPa 0,0 l/m 14,0 km/h (3 Bft) W-NW 292 2,3 C -0,2 C
02.02.2013 10:01 3,3 C 93 % 996,5 hPa 0,0 l/m 6,5 km/h (2 Bft) N-NW 337 2,3 C 1,6 C
02.02.2013 10:06 3,4 C 93 % 996,5 hPa 0,0 l/m 8,3 km/h (2 Bft) N-NW 337 2,4 C 1,2 C
02.02.2013 10:11 3,4 C 92 % 996,6 hPa 0,0 l/m 19,4 km/h (3 Bft) NW 315 2,2 C -0,9 C
02.02.2013 10:16 3,4 C 92 % 996,7 hPa 0,0 l/m 10,1 km/h (2 Bft) N-NW 337 2,2 C 0,7 C
02.02.2013 10:21 3,4 C 92 % 996,8 hPa 0,0 l/m 6,1 km/h (2 Bft) N-NW 337 2,2 C 1,8 C
02.02.2013 10:26 3,4 C 92 % 996,9 hPa 0,0 l/m 7,2 km/h (2 Bft) N-NW 337 2,2 C 1,5 C
02.02.2013 10:31 3,4 C 92 % 996,9 hPa 0,0 l/m 4,7 km/h (1 Bft) NW 315 2,2 C 2,4 C
02.02.2013 10:36 3,4 C 92 % 996,9 hPa 0,0 l/m 6,1 km/h (2 Bft) NW 315 2,2 C 1,8 C
02.02.2013 10:41 3,4 C 92 % 997,0 hPa 0,0 l/m 11,5 km/h (2 Bft) N-NW 337 2,2 C 0,4 C
02.02.2013 10:46 3,4 C 92 % 997,2 hPa 0,0 l/m 7,6 km/h (2 Bft) NW 315 2,2 C 1,4 C
02.02.2013 10:51 3,5 C 92 % 997,3 hPa 0,0 l/m 3,6 km/h (1 Bft) N-NW 337 2,3 C 3,5 C
02.02.2013 10:56 3,5 C 92 % 997,5 hPa 0,0 l/m 7,2 km/h (2 Bft) N-NW 337 2,3 C 1,6 C
02.02.2013 11:01 3,5 C 92 % 997,5 hPa 0,0 l/m 9,0 km/h (2 Bft) NW 315 2,3 C 1,1 C
02.02.2013 11:06 3,4 C 92 % 997,8 hPa 0,0 l/m 25,2 km/h (4 Bft) N-NW 337 2,2 C -1,6 C
02.02.2013 11:11 3,1 C 91 % 997,9 hPa 0,0 l/m 14,4 km/h (3 Bft) N 360 1,8 C -0,5 C
02.02.2013 11:16 2,8 C 91 % 998,3 hPa 0,0 l/m 21,6 km/h (4 Bft) N 360 1,5 C -1,9 C
02.02.2013 11:21 2,5 C 90 % 998,2 hPa 0,0 l/m 18,0 km/h (3 Bft) N 360 1,0 C -1,8 C
02.02.2013 11:26 2,4 C 90 % 998,5 hPa 0,0 l/m 14,8 km/h (3 Bft) N 360 0,9 C -1,4 C
02.02.2013 11:31 2,3 C 90 % 998,5 hPa 0,0 l/m 24,1 km/h (4 Bft) N 360 0,8 C -2,9 C
02.02.2013 11:36 2,3 C 89 % 998,7 hPa 0,0 l/m 13,3 km/h (3 Bft) N 360 0,7 C -1,3 C
02.02.2013 11:41 2,2 C 90 % 998,8 hPa 0,0 l/m 9,0 km/h (2 Bft) N 360 0,7 C -0,4 C
02.02.2013 11:46 2,2 C 89 % 998,9 hPa 0,0 l/m 17,3 km/h (3 Bft) N 360 0,6 C -2,1 C
02.02.2013 11:51 2,2 C 88 % 998,9 hPa 0,0 l/m 11,2 km/h (2 Bft) N 360 0,4 C -1,0 C
02.02.2013 11:56 2,2 C 88 % 999,0 hPa 0,0 l/m 16,6 km/h (3 Bft) N 360 0,4 C -2,0 C
02.02.2013 12:01 2,2 C 88 % 999,0 hPa 0,0 l/m 14,8 km/h (3 Bft) N 360 0,4 C -1,7 C
02.02.2013 12:06 2,1 C 88 % 999,1 hPa 0,0 l/m 8,3 km/h (2 Bft) N 360 0,3 C -0,4 C
02.02.2013 12:11 2,1 C 88 % 999,2 hPa 0,0 l/m 13,7 km/h (3 Bft) N-NW 337 0,3 C -1,6 C
02.02.2013 12:16 2,1 C 88 % 999,3 hPa 0,0 l/m 27,7 km/h (4 Bft) N-NW 337 0,3 C -3,5 C
02.02.2013 12:21 2,1 C 86 % 999,4 hPa 0,0 l/m 18,0 km/h (3 Bft) N 360 0,0 C -2,3 C
02.02.2013 12:26 2,1 C 86 % 999,3 hPa 0,0 l/m 9,7 km/h (2 Bft) N 360 0,0 C -0,7 C
02.02.2013 12:31 2,1 C 85 % 999,4 hPa 0,0 l/m 12,6 km/h (3 Bft) N-NW 337 -0,2 C -1,4 C
02.02.2013 12:36 2,1 C 85 % 999,5 hPa 0,5 l/m 11,9 km/h (2 Bft) O-NO 67 -0,2 C -1,2 C
02.02.2013 12:41 2,3 C 85 % 999,8 hPa 0,0 l/m 24,8 km/h (4 Bft) O-NO 67 0,0 C -2,9 C
02.02.2013 12:46 2,4 C 85 % 999,8 hPa 0,0 l/m 11,2 km/h (2 Bft) O-NO 67 0,1 C -0,7 C
02.02.2013 12:51 2,4 C 85 % 999,8 hPa 0,0 l/m 14,8 km/h (3 Bft) N 360 0,1 C -1,4 C
02.02.2013 12:56 2,4 C 85 % 999,9 hPa 0,0 l/m 13,3 km/h (3 Bft) N 360 0,1 C -1,2 C
02.02.2013 13:01 2,4 C 86 % 999,8 hPa 0,0 l/m 5,4 km/h (1 Bft) N 360 0,3 C 1,0 C
02.02.2013 13:06 2,4 C 86 % 999,9 hPa 0,0 l/m 7,2 km/h (2 Bft) N 360 0,3 C 0,3 C
02.02.2013 13:11 2,5 C 87 % 1000,0 hPa 0,0 l/m 16,9 km/h (3 Bft) N 360 0,6 C -1,6 C
02.02.2013 13:16 2,7 C 86 % 1000,0 hPa 0,0 l/m 6,1 km/h (2 Bft) N 360 0,6 C 1,0 C
02.02.2013 13:21 2,8 C 86 % 1000,1 hPa 0,0 l/m 14,4 km/h (3 Bft) N 360 0,7 C -0,9 C
02.02.2013 13:26 2,9 C 85 % 1000,1 hPa 0,0 l/m 7,6 km/h (2 Bft) N 360 0,6 C 0,8 C
02.02.2013 13:31 2,8 C 84 % 1000,4 hPa 0,0 l/m 19,1 km/h (3 Bft) NW 315 0,4 C -1,6 C
02.02.2013 13:36 2,5 C 85 % 1000,6 hPa 0,0 l/m 11,9 km/h (2 Bft) N 360 0,2 C -0,8 C
02.02.2013 13:41 2,5 C 86 % 1000,5 hPa 0,0 l/m 19,1 km/h (3 Bft) NW 315 0,4 C -2,0 C
02.02.2013 13:46 2,5 C 85 % 1000,6 hPa 0,0 l/m 7,9 km/h (2 Bft) N 360 0,2 C 0,2 C
02.02.2013 13:51 2,5 C 85 % 1000,8 hPa 0,0 l/m 3,2 km/h (1 Bft) N 360 0,2 C 2,5 C
02.02.2013 13:56 2,7 C 84 % 1000,9 hPa 0,0 l/m 19,4 km/h (3 Bft) N-NW 337 0,3 C -1,8 C
02.02.2013 14:01 2,9 C 84 % 1000,9 hPa 0,0 l/m 14,4 km/h (3 Bft) N 360 0,5 C -0,7 C
02.02.2013 14:06 2,9 C 80 % 1001,0 hPa 0,0 l/m 6,1 km/h (2 Bft) SW 225 -0,2 C 1,3 C
02.02.2013 14:11 2,8 C 78 % 1001,3 hPa 0,0 l/m 24,1 km/h (4 Bft) NW 315 -0,6 C -2,2 C
02.02.2013 14:16 2,6 C 79 % 1001,2 hPa 0,0 l/m 5,8 km/h (2 Bft) N-NO 22 -0,7 C 1,0 C
02.02.2013 14:21 2,5 C 80 % 1001,4 hPa 0,0 l/m 13,3 km/h (3 Bft) N-NO 22 -0,6 C -1,0 C
02.02.2013 14:26 2,4 C 78 % 1001,3 hPa 0,0 l/m 20,9 km/h (4 Bft) NO 45 -1,0 C -2,3 C
02.02.2013 14:31 2,3 C 79 % 1001,7 hPa 0,0 l/m 13,3 km/h (3 Bft) N-NO 22 -1,0 C -1,3 C
02.02.2013 14:36 2,3 C 77 % 1001,7 hPa 0,0 l/m 11,2 km/h (2 Bft) N 360 -1,3 C -0,8 C
02.02.2013 14:41 2,2 C 77 % 1001,8 hPa 0,0 l/m 24,5 km/h (4 Bft) NW 315 -1,4 C -3,0 C
02.02.2013 14:46 2,2 C 76 % 1001,8 hPa 0,0 l/m 25,9 km/h (4 Bft) N-NO 22 -1,6 C -3,2 C
02.02.2013 14:51 2,1 C 74 % 1002,0 hPa 0,0 l/m 9,4 km/h (2 Bft) N-NO 22 -2,0 C -0,7 C
02.02.2013 14:56 2,1 C 74 % 1001,9 hPa 0,0 l/m 13,3 km/h (3 Bft) N 360 -2,0 C -1,5 C
02.02.2013 15:01 2,1 C 72 % 1002,0 hPa 0,0 l/m 21,6 km/h (4 Bft) N-NO 22 -2,4 C -2,8 C
02.02.2013 15:06 2,1 C 73 % 1002,0 hPa 0,0 l/m 16,2 km/h (3 Bft) N-NO 22 -2,2 C -2,0 C
02.02.2013 15:11 2,0 C 74 % 1002,1 hPa 0,0 l/m 12,2 km/h (2 Bft) N-NO 22 -2,1 C -1,4 C
02.02.2013 15:16 1,9 C 74 % 1002,2 hPa 0,0 l/m 15,1 km/h (3 Bft) N-NO 22 -2,2 C -2,1 C
02.02.2013 15:21 1,9 C 74 % 1002,2 hPa 0,0 l/m 14,0 km/h (3 Bft) N-NO 22 -2,2 C -1,9 C
02.02.2013 15:26 1,9 C 74 % 1002,2 hPa 0,0 l/m 23,8 km/h (4 Bft) N-NO 22 -2,2 C -3,3 C
02.02.2013 15:31 1,9 C 74 % 1002,4 hPa 0,0 l/m 16,6 km/h (3 Bft) N-NW 337 -2,2 C -2,3 C
02.02.2013 15:36 1,8 C 74 % 1002,5 hPa 0,0 l/m 18,0 km/h (3 Bft) N-NO 22 -2,3 C -2,7 C
02.02.2013 15:41 1,7 C 73 % 1002,7 hPa 0,0 l/m 13,7 km/h (3 Bft) N-NO 22 -2,6 C -2,1 C
02.02.2013 15:46 1,6 C 73 % 1002,8 hPa 0,0 l/m 16,2 km/h (3 Bft) N-NW 337 -2,7 C -2,6 C
02.02.2013 15:51 1,5 C 73 % 1002,8 hPa 0,0 l/m 13,3 km/h (3 Bft) N 360 -2,8 C -2,2 C
02.02.2013 15:56 1,5 C 73 % 1002,8 hPa 0,0 l/m 8,6 km/h (2 Bft) N-NO 22 -2,8 C -1,2 C
02.02.2013 16:01 1,6 C 73 % 1003,0 hPa 0,0 l/m 9,4 km/h (2 Bft) N-NO 22 -2,7 C -1,3 C
02.02.2013 16:06 1,6 C 73 % 1003,0 hPa 0,0 l/m 9,4 km/h (2 Bft) N 360 -2,7 C -1,3 C
02.02.2013 16:11 1,6 C 74 % 1003,3 hPa 0,0 l/m 9,0 km/h (2 Bft) N 360 -2,5 C -1,1 C
02.02.2013 16:16 1,5 C 74 % 1003,5 hPa 0,0 l/m 7,9 km/h (2 Bft) O-NO 67 -2,6 C -0,9 C
02.02.2013 16:21 1,5 C 75 % 1003,7 hPa 0,0 l/m 4,3 km/h (1 Bft) NO 45 -2,4 C 1,5 C
02.02.2013 16:26 1,5 C 76 % 1003,6 hPa 0,0 l/m 4,3 km/h (1 Bft) N-NO 22 -2,3 C 1,5 C
02.02.2013 16:31 1,4 C 76 % 1003,7 hPa 0,0 l/m 5,4 km/h (1 Bft) N-NW 337 -2,4 C -0,2 C
02.02.2013 16:36 1,3 C 75 % 1003,8 hPa 0,0 l/m 9,0 km/h (2 Bft) N 360 -2,6 C -1,5 C
02.02.2013 16:41 1,3 C 75 % 1003,8 hPa 0,0 l/m 9,0 km/h (2 Bft) N 360 -2,6 C -1,5 C
02.02.2013 16:46 1,3 C 74 % 1003,9 hPa 0,0 l/m 9,7 km/h (2 Bft) N-NO 22 -2,8 C -1,7 C
02.02.2013 16:51 1,3 C 73 % 1004,0 hPa 0,0 l/m 10,8 km/h (2 Bft) N-NO 22 -3,0 C -2,0 C
02.02.2013 16:56 1,2 C 72 % 1004,1 hPa 0,0 l/m 8,3 km/h (2 Bft) N 360 -3,3 C -1,4 C
02.02.2013 17:01 1,1 C 73 % 1004,2 hPa 0,0 l/m 5,8 km/h (2 Bft) N-NW 337 -3,2 C -0,7 C
02.02.2013 17:06 1,0 C 73 % 1004,3 hPa 0,0 l/m 7,6 km/h (2 Bft) N-NO 22 -3,3 C -1,4 C
02.02.2013 17:11 0,9 C 74 % 1004,4 hPa 0,0 l/m 6,5 km/h (2 Bft) NO 45 -3,2 C -1,2 C
02.02.2013 17:16 0,9 C 75 % 1004,5 hPa 0,0 l/m 7,2 km/h (2 Bft) NO 45 -3,0 C -1,4 C
02.02.2013 17:21 0,9 C 75 % 1004,7 hPa 0,0 l/m 5,4 km/h (1 Bft) N 360 -3,0 C -0,7 C
02.02.2013 17:26 0,9 C 75 % 1004,7 hPa 0,0 l/m 8,3 km/h (2 Bft) N-NO 22 -3,0 C -1,8 C
02.02.2013 17:31 0,8 C 75 % 1004,9 hPa 0,0 l/m 8,3 km/h (2 Bft) N-NO 22 -3,1 C -1,9 C
02.02.2013 17:36 0,8 C 75 % 1005,1 hPa 0,0 l/m 2,5 km/h (1 Bft) N-NO 22 -3,1 C 0,8 C
02.02.2013 17:41 0,8 C 76 % 1005,0 hPa 0,0 l/m 4,0 km/h (1 Bft) N-NW 337 -2,9 C 0,8 C
02.02.2013 17:46 0,7 C 76 % 1005,1 hPa 0,0 l/m 2,2 km/h (1 Bft) N-NW 337 -3,0 C 0,7 C
02.02.2013 17:51 0,6 C 76 % 1005,2 hPa 0,0 l/m 0,0 km/h (0 Bft) N-NW 337 -3,1 C 0,6 C
02.02.2013 17:56 0,4 C 77 % 1005,2 hPa 0,0 l/m 3,6 km/h (1 Bft) N-NW 337 -3,1 C 0,4 C
02.02.2013 18:01 0,3 C 77 % 1005,3 hPa 0,0 l/m 2,2 km/h (1 Bft) NW 315 -3,2 C 0,3 C
02.02.2013 18:06 0,1 C 78 % 1005,5 hPa 0,0 l/m 2,5 km/h (1 Bft) N-NW 337 -3,3 C 0,1 C
02.02.2013 18:11 -0,1 C 78 % 1005,4 hPa 0,0 l/m 3,2 km/h (1 Bft) W-NW 292 -3,5 C -0,1 C
02.02.2013 18:16 -0,1 C 79 % 1005,5 hPa 0,0 l/m 0,0 km/h (0 Bft) W-NW 292 -3,3 C -0,1 C
02.02.2013 18:21 -0,2 C 79 % 1005,5 hPa 0,0 l/m 0,0 km/h (0 Bft) W-NW 292 -3,4 C -0,2 C
02.02.2013 18:26 -0,2 C 80 % 1005,7 hPa 0,0 l/m 0,0 km/h (0 Bft) W-NW 292 -3,2 C -0,2 C
02.02.2013 18:31 -0,4 C 80 % 1005,8 hPa 0,0 l/m 0,0 km/h (0 Bft) W-NW 292 -3,4 C -0,4 C
02.02.2013 18:36 -0,4 C 80 % 1005,9 hPa 0,0 l/m 0,0 km/h (0 Bft) W-NW 292 -3,4 C -0,4 C
02.02.2013 18:41 -0,5 C 80 % 1005,9 hPa 0,0 l/m 0,0 km/h (0 Bft) W-NW 292 -3,5 C -0,5 C
02.02.2013 18:46 -0,6 C 81 % 1006,0 hPa 0,0 l/m 0,0 km/h (0 Bft) W-NW 292 -3,4 C -0,6 C
02.02.2013 18:51 -0,7 C 81 % 1006,0 hPa 0,0 l/m 0,0 km/h (0 Bft) W-NW 292 -3,5 C -0,7 C
02.02.2013 18:56 -0,8 C 81 % 1006,1 hPa 0,0 l/m 2,2 km/h (1 Bft) W-NW 292 -3,6 C -0,8 C
02.02.2013 19:01 -0,8 C 82 % 1006,2 hPa 0,0 l/m 2,2 km/h (1 Bft) W 270 -3,5 C -0,8 C
02.02.2013 19:06 -0,8 C 82 % 1006,1 hPa 0,0 l/m 0,0 km/h (0 Bft) W-NW 292 -3,5 C -0,8 C
02.02.2013 19:11 -0,8 C 83 % 1006,3 hPa 0,0 l/m 3,2 km/h (1 Bft) NW 315 -3,3 C -0,8 C
02.02.2013 19:16 -0,8 C 83 % 1006,3 hPa 0,0 l/m 0,0 km/h (0 Bft) NW 315 -3,3 C -0,8 C
02.02.2013 19:21 -0,8 C 83 % 1006,3 hPa 0,0 l/m 1,1 km/h (1 Bft) N-NW 337 -3,3 C -0,8 C
02.02.2013 19:26 -0,9 C 83 % 1006,3 hPa 0,0 l/m 1,4 km/h (1 Bft) N-NW 337 -3,4 C -0,9 C
02.02.2013 19:31 -0,9 C 83 % 1006,4 hPa 0,0 l/m 0,0 km/h (0 Bft) N-NW 337 -3,4 C -0,9 C
02.02.2013 19:36 -0,9 C 83 % 1006,5 hPa 0,0 l/m 2,5 km/h (1 Bft) NW 315 -3,4 C -0,9 C
02.02.2013 19:41 -1,0 C 83 % 1006,6 hPa 0,0 l/m 0,0 km/h (0 Bft) NW 315 -3,5 C -1,0 C
02.02.2013 19:46 -1,0 C 83 % 1006,6 hPa 0,0 l/m 0,0 km/h (0 Bft) NW 315 -3,5 C -1,0 C
02.02.2013 19:51 -1,0 C 84 % 1006,8 hPa 0,0 l/m 0,0 km/h (0 Bft) NW 315 -3,4 C -1,0 C
02.02.2013 19:56 -1,1 C 84 % 1007,0 hPa 0,0 l/m 0,0 km/h (0 Bft) NW 315 -3,4 C -1,1 C
02.02.2013 20:01 -1,1 C 84 % 1007,0 hPa 0,0 l/m 2,5 km/h (1 Bft) W 270 -3,4 C -1,1 C
02.02.2013 20:06 -1,1 C 84 % 1007,0 hPa 0,0 l/m 0,0 km/h (0 Bft) W 270 -3,4 C -1,1 C
02.02.2013 20:11 -1,1 C 84 % 1006,9 hPa 0,0 l/m 0,0 km/h (0 Bft) W 270 -3,4 C -1,1 C
02.02.2013 20:16 -1,1 C 84 % 1007,1 hPa 0,0 l/m 0,0 km/h (0 Bft) W 270 -3,4 C -1,1 C
02.02.2013 20:21 -1,2 C 84 % 1007,1 hPa 0,0 l/m 0,0 km/h (0 Bft) W 270 -3,5 C -1,2 C
02.02.2013 20:26 -1,3 C 84 % 1007,2 hPa 0,0 l/m 0,0 km/h (0 Bft) W-NW 292 -3,6 C -1,3 C
02.02.2013 20:31 -1,4 C 85 % 1007,3 hPa 0,0 l/m 0,0 km/h (0 Bft) W-NW 292 -3,6 C -1,4 C
02.02.2013 20:36 -1,4 C 85 % 1007,4 hPa 0,0 l/m 2,5 km/h (1 Bft) W-NW 292 -3,6 C -1,4 C
02.02.2013 20:41 -1,4 C 85 % 1007,2 hPa 0,0 l/m 0,0 km/h (0 Bft) W-NW 292 -3,6 C -1,4 C
02.02.2013 20:46 -1,4 C 85 % 1007,3 hPa 0,0 l/m 0,0 km/h (0 Bft) NW 315 -3,6 C -1,4 C
02.02.2013 20:51 -1,5 C 85 % 1007,4 hPa 0,0 l/m 0,0 km/h (0 Bft) NW 315 -3,7 C -1,5 C
02.02.2013 20:56 -1,6 C 85 % 1007,4 hPa 0,0 l/m 0,0 km/h (0 Bft) NW 315 -3,8 C -1,6 C
02.02.2013 21:01 -1,6 C 85 % 1007,4 hPa 0,0 l/m 1,1 km/h (1 Bft) NW 315 -3,8 C -1,6 C
02.02.2013 21:06 -1,7 C 85 % 1007,4 hPa 0,0 l/m 0,0 km/h (0 Bft) NW 315 -3,9 C -1,7 C
02.02.2013 21:11 -1,7 C 85 % 1007,3 hPa 0,0 l/m 1,8 km/h (1 Bft) NW 315 -3,9 C -1,7 C
02.02.2013 21:16 -1,8 C 85 % 1007,5 hPa 0,0 l/m 2,9 km/h (1 Bft) NW 315 -4,0 C -1,8 C
02.02.2013 21:21 -1,8 C 85 % 1007,5 hPa 0,0 l/m 1,4 km/h (1 Bft) NW 315 -4,0 C -1,8 C
02.02.2013 21:26 -1,8 C 85 % 1007,6 hPa 0,0 l/m 0,0 km/h (0 Bft) N-NW 337 -4,0 C -1,8 C
02.02.2013 21:31 -1,9 C 85 % 1007,8 hPa 0,0 l/m 1,4 km/h (1 Bft) N-NW 337 -4,1 C -1,9 C
02.02.2013 21:36 -1,9 C 85 % 1007,8 hPa 0,0 l/m 0,0 km/h (0 Bft) N-NW 337 -4,1 C -1,9 C
02.02.2013 21:41 -1,9 C 85 % 1007,8 hPa 0,0 l/m 1,4 km/h (1 Bft) N-NW 337 -4,1 C -1,9 C
02.02.2013 21:46 -2,1 C 86 % 1007,8 hPa 0,0 l/m 1,1 km/h (1 Bft) N-NW 337 -4,1 C -2,1 C
02.02.2013 21:51 -2,1 C 86 % 1007,8 hPa 0,0 l/m 0,0 km/h (0 Bft) NW 315 -4,1 C -2,1 C
02.02.2013 21:56 -2,1 C 86 % 1008,0 hPa 0,0 l/m 0,0 km/h (0 Bft) NW 315 -4,1 C -2,1 C
02.02.2013 22:01 -2,1 C 86 % 1008,0 hPa 0,0 l/m 0,0 km/h (0 Bft) N-NW 337 -4,1 C -2,1 C
02.02.2013 22:06 -2,1 C 86 % 1008,0 hPa 0,0 l/m 0,0 km/h (0 Bft) W-NW 292 -4,1 C -2,1 C
02.02.2013 22:11 -2,1 C 86 % 1008,0 hPa 0,0 l/m 2,2 km/h (1 Bft) W-NW 292 -4,1 C -2,1 C
02.02.2013 22:16 -2,1 C 86 % 1008,1 hPa 0,0 l/m 4,7 km/h (1 Bft) NW 315 -4,1 C -3,8 C
02.02.2013 22:21 -2,1 C 86 % 1008,2 hPa 0,0 l/m 1,1 km/h (1 Bft) W-NW 292 -4,1 C -2,1 C
02.02.2013 22:26 -2,1 C 87 % 1008,2 hPa 0,0 l/m 0,0 km/h (0 Bft) W-NW 292 -4,0 C -2,1 C
02.02.2013 22:31 -2,1 C 87 % 1008,3 hPa 0,0 l/m 0,0 km/h (0 Bft) W-NW 292 -4,0 C -2,1 C
02.02.2013 22:36 -2,1 C 87 % 1008,3 hPa 0,0 l/m 0,0 km/h (0 Bft) W-NW 292 -4,0 C -2,1 C
02.02.2013 22:41 -2,1 C 87 % 1008,5 hPa 0,0 l/m 4,0 km/h (1 Bft) NW 315 -4,0 C -2,1 C
02.02.2013 22:46 -2,1 C 87 % 1008,6 hPa 0,0 l/m 2,2 km/h (1 Bft) NW 315 -4,0 C -2,1 C
02.02.2013 22:51 -2,1 C 87 % 1008,7 hPa 0,0 l/m 0,0 km/h (0 Bft) NW 315 -4,0 C -2,1 C
02.02.2013 22:56 -2,2 C 87 % 1008,6 hPa 0,0 l/m 2,9 km/h (1 Bft) NW 315 -4,1 C -2,2 C
02.02.2013 23:01 -2,2 C 87 % 1008,6 hPa 0,0 l/m 0,0 km/h (0 Bft) N-NW 337 -4,1 C -2,2 C
02.02.2013 23:06 -2,3 C 87 % 1008,7 hPa 0,0 l/m 1,4 km/h (1 Bft) N-NW 337 -4,2 C -2,3 C
02.02.2013 23:11 -2,4 C 87 % 1008,8 hPa 0,0 l/m 0,0 km/h (0 Bft) N-NW 337 -4,3 C -2,4 C
02.02.2013 23:16 -2,5 C 87 % 1008,8 hPa 0,0 l/m 1,4 km/h (1 Bft) N-NW 337 -4,4 C -2,5 C
02.02.2013 23:21 -2,6 C 87 % 1008,9 hPa 0,0 l/m 1,8 km/h (1 Bft) NW 315 -4,5 C -2,6 C
02.02.2013 23:26 -2,6 C 87 % 1009,0 hPa 0,0 l/m 2,5 km/h (1 Bft) W-NW 292 -4,5 C -2,6 C
02.02.2013 23:31 -2,6 C 87 % 1008,8 hPa 0,0 l/m 0,0 km/h (0 Bft) NW 315 -4,5 C -2,6 C
02.02.2013 23:36 -2,7 C 87 % 1009,0 hPa 0,0 l/m 4,7 km/h (1 Bft) N-NW 337 -4,6 C -4,5 C
02.02.2013 23:41 -2,7 C 87 % 1009,0 hPa 0,0 l/m 3,6 km/h (1 Bft) N-NW 337 -4,6 C -2,7 C
02.02.2013 23:46 -2,7 C 87 % 1009,1 hPa 0,0 l/m 3,6 km/h (1 Bft) N-NW 337 -4,6 C -2,7 C
02.02.2013 23:51 -2,7 C 87 % 1008,9 hPa 0,0 l/m 4,7 km/h (1 Bft) W-NW 292 -4,6 C -4,5 C
02.02.2013 23:56 -2,6 C 88 % 1009,1 hPa 0,0 l/m 3,2 km/h (1 Bft) W-NW 292 -4,3 C -2,6 C
_ Min-Zeit 23:36 15:01 01:56 - 00:01 - - 23:36 23:36
Minimum _ -2,7 C 72 % 990,4 hPa - 0,0 km/h (0 Bft) - - -4,6 C -4,5 C
_ Max-Zeit 10:51 05:46 23:46 00:01 12:16 - - 10:06 10:51
Maximum _ 3,5 C 94 % 1009,1 hPa 0,5 l/m 27,7 km/h
N-NW (4 Bft)
- - 2,4 C 3,5 C
Durchschnitt _ 1,3 C 87 % 999,0 hPa #7,8 l/m 6,9 km/h (2 Bft) N-NW - -0,7 C -0,4 C
(c) by David Heller